createdAt,value
2022-10-31T00:01:20.100Z,11.60
2022-10-31T00:03:46.881Z,11.50
2022-10-31T00:06:13.460Z,11.50
2022-10-31T00:08:40.044Z,11.50
2022-10-31T00:11:10.867Z,11.50
2022-10-31T00:13:37.483Z,11.50
2022-10-31T00:16:04.213Z,11.50
2022-10-31T00:18:30.849Z,11.60
2022-10-31T00:21:01.935Z,11.50
2022-10-31T00:23:28.594Z,11.50
2022-10-31T00:25:55.260Z,11.50
2022-10-31T00:28:21.968Z,11.50
2022-10-31T00:30:48.598Z,11.40
2022-10-31T00:33:15.151Z,11.50
2022-10-31T00:35:41.758Z,11.50
2022-10-31T00:38:08.336Z,11.40
2022-10-31T00:40:34.909Z,11.40
2022-10-31T00:43:02.026Z,11.40
2022-10-31T00:45:29.024Z,11.50
2022-10-31T00:47:55.655Z,11.40
2022-10-31T00:50:22.281Z,11.40
2022-10-31T00:52:48.919Z,11.40
2022-10-31T00:55:15.534Z,11.40
2022-10-31T00:57:42.184Z,11.40
2022-10-31T01:00:09.846Z,11.40
2022-10-31T01:02:36.497Z,11.40
2022-10-31T01:05:03.430Z,11.40
2022-10-31T01:07:30.032Z,11.40
2022-10-31T01:09:56.575Z,11.30
2022-10-31T01:12:23.170Z,11.20
2022-10-31T01:14:49.747Z,11.20
2022-10-31T01:17:16.362Z,11.20
2022-10-31T01:19:42.939Z,11.20
2022-10-31T01:22:09.505Z,11.20
2022-10-31T01:24:36.079Z,11.20
2022-10-31T01:27:03.258Z,11.30
2022-10-31T01:29:29.888Z,11.30
2022-10-31T01:31:56.450Z,11.30
2022-10-31T01:34:23.000Z,11.30
2022-10-31T01:36:52.118Z,11.30
2022-10-31T01:39:20.196Z,11.30
2022-10-31T01:41:52.186Z,11.30
2022-10-31T01:44:18.699Z,11.30
2022-10-31T01:47:16.378Z,11.20
2022-10-31T01:49:54.176Z,11.20
2022-10-31T01:52:33.143Z,11.20
2022-10-31T01:55:03.996Z,11.20
2022-10-31T01:57:33.188Z,11.10
2022-10-31T02:00:05.119Z,11.10
2022-10-31T02:02:33.257Z,11.10
2022-10-31T02:05:02.557Z,11.00
2022-10-31T02:07:37.544Z,11.00
2022-10-31T02:10:04.656Z,11.00
2022-10-31T02:12:33.261Z,10.90
2022-10-31T02:15:01.328Z,10.90
2022-10-31T02:17:29.704Z,10.90
2022-10-31T02:20:11.076Z,10.80
2022-10-31T02:23:06.924Z,10.80
2022-10-31T02:26:11.344Z,10.80
2022-10-31T02:29:06.474Z,10.90
2022-10-31T02:31:43.745Z,10.80
2022-10-31T02:34:35.507Z,11.00
2022-10-31T02:37:15.109Z,10.90
2022-10-31T02:40:00.585Z,10.90
2022-10-31T02:42:50.297Z,10.90
2022-10-31T02:45:33.728Z,11.00
2022-10-31T02:48:09.194Z,11.00
2022-10-31T02:50:40.958Z,10.90
2022-10-31T02:53:07.617Z,10.90
2022-10-31T02:55:34.651Z,10.90
2022-10-31T02:58:07.989Z,10.90
2022-10-31T03:00:54.147Z,10.90
2022-10-31T03:03:37.063Z,10.90
2022-10-31T03:06:45.062Z,10.90
2022-10-31T03:09:21.271Z,10.70
2022-10-31T03:11:56.461Z,10.80
2022-10-31T03:14:31.482Z,10.70
2022-10-31T03:17:03.770Z,10.70
2022-10-31T03:19:39.926Z,10.70
2022-10-31T03:22:33.994Z,10.70
2022-10-31T03:25:03.714Z,10.70
2022-10-31T03:27:34.532Z,10.70
2022-10-31T03:30:04.743Z,10.70
2022-10-31T03:32:52.174Z,10.60
2022-10-31T03:35:21.755Z,10.60
2022-10-31T03:37:50.346Z,10.60
2022-10-31T03:40:19.681Z,10.60
2022-10-31T03:42:54.321Z,10.60
2022-10-31T03:45:31.769Z,10.60
2022-10-31T03:48:00.668Z,10.60
2022-10-31T03:50:37.224Z,10.60
2022-10-31T03:53:19.413Z,10.60
2022-10-31T03:56:07.465Z,10.70
2022-10-31T03:58:50.866Z,10.70
2022-10-31T04:01:20.654Z,10.70
2022-10-31T04:03:47.966Z,10.70
2022-10-31T04:06:16.963Z,10.60
2022-10-31T04:08:49.997Z,10.60
2022-10-31T04:11:20.849Z,10.60
2022-10-31T04:13:49.677Z,10.60
2022-10-31T04:16:17.598Z,10.60
2022-10-31T04:18:44.478Z,10.60
2022-10-31T04:21:11.156Z,10.60
2022-10-31T04:23:37.758Z,10.60
2022-10-31T04:26:04.482Z,10.60
2022-10-31T04:28:31.470Z,10.60
2022-10-31T04:30:58.173Z,10.60
2022-10-31T04:33:24.775Z,10.60
2022-10-31T04:35:51.408Z,10.60
2022-10-31T04:38:18.033Z,10.60
2022-10-31T04:40:46.505Z,10.50
2022-10-31T04:43:13.156Z,10.50
2022-10-31T04:45:39.973Z,10.60
2022-10-31T04:48:06.614Z,10.60
2022-10-31T04:50:33.172Z,10.60
2022-10-31T04:52:59.756Z,10.50
2022-10-31T04:55:26.320Z,10.50
2022-10-31T04:57:53.021Z,10.50
2022-10-31T05:00:21.984Z,10.50
2022-10-31T05:02:53.866Z,10.50
2022-10-31T05:05:26.572Z,10.50
2022-10-31T05:07:53.549Z,10.50
2022-10-31T05:10:23.714Z,10.50
2022-10-31T05:12:55.961Z,10.50
2022-10-31T05:15:23.967Z,10.40
2022-10-31T05:17:51.337Z,10.40
2022-10-31T05:20:20.232Z,10.40
2022-10-31T05:22:52.393Z,10.40
2022-10-31T05:25:21.106Z,10.40
2022-10-31T05:27:50.896Z,10.30
2022-10-31T05:30:26.838Z,10.20
2022-10-31T05:32:53.516Z,10.30
2022-10-31T05:35:33.589Z,10.20
2022-10-31T05:38:00.578Z,10.20
2022-10-31T05:40:28.422Z,10.20
2022-10-31T05:42:56.844Z,10.20
2022-10-31T05:45:24.522Z,10.20
2022-10-31T05:48:02.833Z,10.10
2022-10-31T05:50:32.524Z,10.20
2022-10-31T05:53:01.651Z,10.20
2022-10-31T05:55:28.966Z,10.20
2022-10-31T05:57:56.018Z,10.20
2022-10-31T06:00:24.069Z,10.20
2022-10-31T06:02:50.869Z,10.20
2022-10-31T06:05:17.693Z,10.30
2022-10-31T06:07:44.513Z,10.30
2022-10-31T06:10:11.313Z,10.30
2022-10-31T06:12:38.576Z,10.30
2022-10-31T06:15:07.441Z,10.20
2022-10-31T06:17:37.134Z,10.20
2022-10-31T06:20:04.957Z,10.20
2022-10-31T06:22:31.940Z,10.30
2022-10-31T06:24:58.679Z,10.30
2022-10-31T06:27:25.565Z,10.30
2022-10-31T06:29:53.890Z,10.30
2022-10-31T06:32:24.068Z,10.30
2022-10-31T06:34:51.005Z,10.30
2022-10-31T06:37:18.585Z,10.30
2022-10-31T06:39:45.745Z,10.20
2022-10-31T06:42:12.675Z,10.20
2022-10-31T06:44:39.620Z,10.30
2022-10-31T06:47:07.296Z,10.30
2022-10-31T06:49:34.208Z,10.30
2022-10-31T06:52:00.815Z,10.30
2022-10-31T06:54:27.586Z,10.40
2022-10-31T06:56:56.764Z,10.40
2022-10-31T06:59:25.009Z,10.40
2022-10-31T07:01:51.953Z,10.40
2022-10-31T07:04:20.321Z,10.50
2022-10-31T07:06:51.786Z,10.50
2022-10-31T07:09:18.666Z,10.50
2022-10-31T07:11:45.285Z,10.50
2022-10-31T07:14:11.919Z,10.60
2022-10-31T07:16:38.529Z,10.60
2022-10-31T07:19:05.343Z,10.70
2022-10-31T07:21:31.981Z,10.60
2022-10-31T07:23:58.674Z,10.60
2022-10-31T07:26:25.284Z,10.70
2022-10-31T07:28:51.920Z,10.70
2022-10-31T07:31:18.815Z,10.70
2022-10-31T07:33:45.417Z,10.70
2022-10-31T07:36:12.046Z,10.70
2022-10-31T07:38:38.631Z,10.80
2022-10-31T07:41:05.395Z,10.80
2022-10-31T07:43:32.073Z,10.90
2022-10-31T07:45:58.724Z,11.00
2022-10-31T07:48:25.268Z,10.90
2022-10-31T07:50:51.990Z,11.20
2022-10-31T07:53:18.668Z,11.30
2022-10-31T07:55:45.601Z,11.30
2022-10-31T07:58:15.105Z,11.30
2022-10-31T08:00:44.134Z,11.30
2022-10-31T08:03:13.239Z,11.30
2022-10-31T08:05:41.960Z,11.40
2022-10-31T08:08:09.524Z,11.40
2022-10-31T08:10:36.434Z,11.40
2022-10-31T08:13:20.826Z,11.50
2022-10-31T08:15:51.182Z,11.50
2022-10-31T08:18:18.141Z,11.60
2022-10-31T08:20:45.528Z,11.60
2022-10-31T08:23:13.411Z,11.70
2022-10-31T08:25:41.063Z,11.80
2022-10-31T08:28:09.502Z,11.80
2022-10-31T08:30:38.005Z,11.90
2022-10-31T08:33:17.698Z,12.00
2022-10-31T08:35:44.858Z,12.00
2022-10-31T08:38:13.668Z,12.00
2022-10-31T08:40:40.847Z,12.10
2022-10-31T08:43:15.926Z,12.10
2022-10-31T08:45:44.191Z,12.20
2022-10-31T08:48:14.701Z,12.20
2022-10-31T08:50:41.810Z,12.30
2022-10-31T08:53:15.763Z,12.40
2022-10-31T08:55:43.518Z,12.40
2022-10-31T08:58:16.631Z,12.50
2022-10-31T09:00:44.117Z,12.50
2022-10-31T09:03:15.386Z,12.60
2022-10-31T09:05:42.338Z,12.60
2022-10-31T09:08:15.762Z,12.70
2022-10-31T09:10:43.985Z,12.70
2022-10-31T09:13:19.414Z,12.70
2022-10-31T09:15:48.660Z,12.70
2022-10-31T09:18:17.438Z,12.80
2022-10-31T09:20:45.685Z,12.90
2022-10-31T09:23:17.879Z,12.90
2022-10-31T09:25:50.178Z,13.00
2022-10-31T09:28:20.324Z,13.00
2022-10-31T09:30:48.915Z,13.00
2022-10-31T09:33:16.030Z,13.00
2022-10-31T09:35:43.574Z,13.00
2022-10-31T09:38:12.739Z,13.10
2022-10-31T09:40:41.071Z,13.20
2022-10-31T09:43:16.717Z,13.30
2022-10-31T09:45:49.367Z,13.30
2022-10-31T09:48:22.065Z,13.30
2022-10-31T09:50:58.733Z,13.40
2022-10-31T09:53:40.589Z,13.40
2022-10-31T09:56:19.018Z,13.40
2022-10-31T09:59:01.431Z,13.40
2022-10-31T10:01:57.210Z,13.50
2022-10-31T10:04:49.117Z,13.50
2022-10-31T10:07:33.980Z,13.50
2022-10-31T10:10:11.341Z,13.60
2022-10-31T10:13:12.201Z,13.70
2022-10-31T10:15:51.558Z,13.70
2022-10-31T10:18:26.830Z,13.90
2022-10-31T10:21:21.043Z,13.90
2022-10-31T10:24:14.155Z,14.00
2022-10-31T10:27:02.157Z,14.00
2022-10-31T10:29:38.279Z,14.10
2022-10-31T10:32:24.399Z,14.20
2022-10-31T10:34:56.690Z,14.30
2022-10-31T10:37:33.803Z,14.30
2022-10-31T10:40:12.551Z,14.40
2022-10-31T10:42:58.093Z,14.40
2022-10-31T10:45:44.023Z,14.50
2022-10-31T10:48:42.498Z,14.50
2022-10-31T10:51:31.984Z,14.60
2022-10-31T10:54:44.092Z,14.80
2022-10-31T10:57:18.818Z,14.90
2022-10-31T10:59:46.645Z,15.00
2022-10-31T11:02:23.228Z,15.10
2022-10-31T11:04:58.368Z,15.20
2022-10-31T11:07:25.317Z,15.20
2022-10-31T11:09:52.054Z,15.30
2022-10-31T11:12:31.734Z,15.30
2022-10-31T11:15:19.345Z,15.40
2022-10-31T11:17:51.721Z,15.40
2022-10-31T11:20:19.323Z,15.60
2022-10-31T11:22:47.677Z,15.60
2022-10-31T11:25:22.698Z,15.70
2022-10-31T11:28:10.331Z,15.70
2022-10-31T11:31:01.907Z,15.70
2022-10-31T11:33:45.978Z,15.80
2022-10-31T11:36:30.176Z,15.80
2022-10-31T11:38:57.395Z,15.90
2022-10-31T11:41:32.836Z,15.90
2022-10-31T11:44:21.416Z,16.00
2022-10-31T11:46:50.494Z,16.00
2022-10-31T11:49:40.168Z,16.10
2022-10-31T11:52:14.801Z,16.10
2022-10-31T11:54:52.977Z,16.20
2022-10-31T11:57:52.200Z,16.20
2022-10-31T12:00:31.335Z,16.30
2022-10-31T12:03:35.994Z,16.30
2022-10-31T12:06:04.875Z,16.40
2022-10-31T12:08:34.946Z,16.60
2022-10-31T12:11:16.834Z,16.60
2022-10-31T12:13:46.521Z,16.60
2022-10-31T12:16:45.851Z,16.70
2022-10-31T12:19:24.389Z,16.70
2022-10-31T12:22:03.050Z,16.70
2022-10-31T12:24:32.748Z,16.80
2022-10-31T12:27:02.349Z,16.80
2022-10-31T12:29:44.433Z,16.90
2022-10-31T12:32:31.574Z,16.90
2022-10-31T12:35:04.530Z,17.00
2022-10-31T12:37:46.507Z,17.00
2022-10-31T12:40:34.275Z,17.10
2022-10-31T12:43:31.939Z,17.10
2022-10-31T12:46:00.502Z,17.20
2022-10-31T12:48:40.027Z,17.20
2022-10-31T12:51:49.994Z,17.20
2022-10-31T12:54:32.520Z,17.20
2022-10-31T12:57:29.531Z,17.20
2022-10-31T13:00:06.008Z,17.30
2022-10-31T13:02:52.713Z,17.30
2022-10-31T13:05:42.865Z,17.40
2022-10-31T13:08:17.308Z,17.50
2022-10-31T13:10:53.366Z,17.50
2022-10-31T13:13:40.703Z,17.50
2022-10-31T13:16:20.613Z,17.60
2022-10-31T13:19:06.553Z,17.60
2022-10-31T13:21:51.653Z,17.70
2022-10-31T13:24:23.405Z,17.70
2022-10-31T13:26:59.923Z,17.80
2022-10-31T13:29:42.380Z,17.80
2022-10-31T13:32:11.703Z,17.80
2022-10-31T13:34:43.823Z,17.80
2022-10-31T13:37:36.400Z,17.90
2022-10-31T13:40:30.834Z,17.90
2022-10-31T13:43:36.463Z,17.90
2022-10-31T13:46:03.341Z,17.80
2022-10-31T13:48:39.754Z,17.80
2022-10-31T13:51:09.586Z,17.80
2022-10-31T13:53:43.680Z,17.80
2022-10-31T13:56:10.356Z,17.80
2022-10-31T13:58:37.413Z,17.80
2022-10-31T14:01:23.417Z,17.90
2022-10-31T14:04:20.788Z,17.90
2022-10-31T14:07:15.860Z,17.90
2022-10-31T14:09:51.294Z,17.90
2022-10-31T14:12:39.380Z,17.90
2022-10-31T14:15:28.278Z,17.90
2022-10-31T14:18:03.326Z,17.90
2022-10-31T14:20:38.016Z,17.90
2022-10-31T14:23:33.656Z,17.90
2022-10-31T14:26:23.129Z,17.90
2022-10-31T14:28:52.686Z,17.90
2022-10-31T14:31:35.946Z,17.90
2022-10-31T14:34:12.512Z,17.90
2022-10-31T14:36:50.320Z,17.80
2022-10-31T14:39:29.126Z,17.80
2022-10-31T14:42:28.420Z,17.90
2022-10-31T14:45:13.699Z,17.80
2022-10-31T14:48:06.777Z,17.80
2022-10-31T14:50:43.761Z,17.80
2022-10-31T14:53:18.207Z,17.70
2022-10-31T14:55:48.917Z,17.70
2022-10-31T14:58:26.588Z,17.70
2022-10-31T15:00:57.836Z,17.70
2022-10-31T15:03:44.751Z,17.60
2022-10-31T15:06:22.664Z,17.60
2022-10-31T15:08:56.388Z,17.60
2022-10-31T15:11:26.311Z,17.50
2022-10-31T15:13:56.220Z,17.50
2022-10-31T15:16:27.563Z,17.50
2022-10-31T15:19:17.761Z,17.40
2022-10-31T15:21:46.923Z,17.40
2022-10-31T15:24:18.326Z,17.40
2022-10-31T15:26:56.965Z,17.30
2022-10-31T15:29:26.956Z,17.30
2022-10-31T15:31:56.012Z,17.30
2022-10-31T15:34:41.048Z,17.30
2022-10-31T15:37:16.467Z,17.40
2022-10-31T15:39:43.920Z,17.60
2022-10-31T15:42:31.319Z,17.80
2022-10-31T15:45:24.766Z,17.90
2022-10-31T15:48:00.056Z,18.10
2022-10-31T15:50:41.542Z,18.00
2022-10-31T15:53:37.200Z,17.90
2022-10-31T15:56:06.880Z,17.70
2022-10-31T15:58:40.270Z,17.60
2022-10-31T16:01:21.489Z,17.50
2022-10-31T16:04:19.784Z,17.30
2022-10-31T16:07:23.927Z,17.30
2022-10-31T16:09:58.714Z,17.20
2022-10-31T16:12:33.240Z,17.10
2022-10-31T16:14:59.907Z,17.10
2022-10-31T16:17:28.236Z,17.00
2022-10-31T16:20:05.898Z,16.90
2022-10-31T16:22:37.120Z,16.80
2022-10-31T16:25:13.446Z,16.60
2022-10-31T16:27:40.983Z,16.60
2022-10-31T16:30:29.127Z,16.70
2022-10-31T16:33:02.047Z,16.70
2022-10-31T16:35:36.948Z,16.60
2022-10-31T16:38:04.298Z,16.40
2022-10-31T16:40:31.729Z,16.40
2022-10-31T16:43:00.045Z,16.40
2022-10-31T16:45:30.143Z,16.40
2022-10-31T16:48:07.551Z,16.40
2022-10-31T16:50:34.243Z,16.30
2022-10-31T16:53:13.426Z,16.40
2022-10-31T16:56:00.273Z,16.40
2022-10-31T16:58:30.589Z,16.30
2022-10-31T17:00:57.900Z,16.30
2022-10-31T17:03:24.560Z,16.20
2022-10-31T17:05:51.486Z,16.10
2022-10-31T17:08:18.376Z,15.90
2022-10-31T17:10:46.846Z,15.80
2022-10-31T17:13:19.741Z,15.80
2022-10-31T17:15:50.274Z,15.70
2022-10-31T17:18:20.484Z,15.70
2022-10-31T17:20:49.528Z,15.70
2022-10-31T17:23:17.446Z,15.60
2022-10-31T17:25:44.338Z,15.60
2022-10-31T17:28:13.882Z,15.60
2022-10-31T17:30:43.983Z,15.60
2022-10-31T17:33:13.324Z,15.50
2022-10-31T17:35:40.071Z,15.50
2022-10-31T17:38:06.691Z,15.50
2022-10-31T17:40:33.443Z,15.60
2022-10-31T17:43:00.405Z,15.50
2022-10-31T17:45:27.637Z,15.50
2022-10-31T17:47:54.494Z,15.40
2022-10-31T17:50:24.931Z,15.40
2022-10-31T17:52:51.940Z,15.40
2022-10-31T17:55:19.095Z,15.30
2022-10-31T17:57:46.038Z,15.30
2022-10-31T18:00:15.768Z,15.30
2022-10-31T18:02:42.521Z,15.20
2022-10-31T18:05:09.812Z,15.20
2022-10-31T18:07:36.479Z,15.10
2022-10-31T18:10:03.319Z,15.10
2022-10-31T18:12:32.158Z,15.00
2022-10-31T18:14:58.801Z,15.00
2022-10-31T18:17:25.417Z,14.90
2022-10-31T18:19:52.214Z,14.90
2022-10-31T18:22:19.147Z,14.90
2022-10-31T18:24:45.941Z,14.90
2022-10-31T18:27:12.588Z,15.00
2022-10-31T18:29:39.181Z,14.90
2022-10-31T18:32:09.550Z,14.80
2022-10-31T18:34:36.399Z,14.80
2022-10-31T18:37:03.484Z,14.70
2022-10-31T18:39:30.257Z,14.80
2022-10-31T18:41:57.142Z,14.70
2022-10-31T18:44:24.018Z,14.70
2022-10-31T18:46:50.634Z,14.60
2022-10-31T18:49:22.408Z,14.60
2022-10-31T18:51:50.262Z,14.60
2022-10-31T18:54:17.548Z,14.60
2022-10-31T18:56:44.966Z,14.50
2022-10-31T18:59:12.246Z,14.40
2022-10-31T19:01:39.550Z,14.40
2022-10-31T19:04:06.540Z,14.30
2022-10-31T19:06:33.163Z,14.30
2022-10-31T19:09:02.645Z,14.20
2022-10-31T19:11:32.514Z,14.10
2022-10-31T19:13:59.170Z,14.00
2022-10-31T19:16:26.620Z,14.00
2022-10-31T19:18:55.782Z,14.00
2022-10-31T19:21:23.226Z,14.10
2022-10-31T19:23:53.840Z,14.00
2022-10-31T19:26:21.098Z,14.00
2022-10-31T19:28:47.883Z,13.90
2022-10-31T19:31:14.520Z,14.00
2022-10-31T19:33:41.217Z,14.00
2022-10-31T19:36:10.281Z,14.00
2022-10-31T19:38:39.082Z,14.00
2022-10-31T19:41:09.483Z,13.90
2022-10-31T19:43:36.178Z,13.80
2022-10-31T19:46:04.378Z,13.80
2022-10-31T19:48:31.291Z,13.90
2022-10-31T19:51:19.163Z,13.90
2022-10-31T19:53:46.252Z,13.80
2022-10-31T19:56:22.354Z,13.80
2022-10-31T19:58:49.396Z,13.80
2022-10-31T20:01:19.188Z,13.70
2022-10-31T20:03:46.690Z,13.70
2022-10-31T20:06:25.514Z,13.70
2022-10-31T20:08:52.546Z,13.70
2022-10-31T20:11:19.708Z,13.60
2022-10-31T20:13:46.391Z,13.60
2022-10-31T20:16:14.148Z,13.70
2022-10-31T20:18:40.961Z,13.60
2022-10-31T20:21:12.875Z,13.70
2022-10-31T20:23:40.418Z,13.70
2022-10-31T20:26:09.917Z,13.60
2022-10-31T20:28:40.100Z,13.50
2022-10-31T20:31:12.584Z,13.50
2022-10-31T20:33:39.348Z,13.50
2022-10-31T20:36:07.559Z,13.40
2022-10-31T20:38:37.030Z,13.40
2022-10-31T20:41:05.838Z,13.40
2022-10-31T20:43:33.584Z,13.30
2022-10-31T20:46:08.301Z,13.20
2022-10-31T20:48:35.074Z,13.10
2022-10-31T20:51:04.420Z,13.10
2022-10-31T20:53:31.936Z,13.10
2022-10-31T20:56:13.046Z,13.20
2022-10-31T20:58:40.737Z,13.20
2022-10-31T21:01:20.554Z,13.20
2022-10-31T21:03:48.140Z,13.20
2022-10-31T21:06:16.055Z,13.20
2022-10-31T21:08:43.656Z,13.20
2022-10-31T21:11:16.256Z,13.20
2022-10-31T21:13:44.200Z,13.10
2022-10-31T21:16:26.080Z,13.10
2022-10-31T21:18:53.442Z,13.10
2022-10-31T21:21:32.472Z,13.10
2022-10-31T21:24:02.266Z,13.10
2022-10-31T21:26:31.437Z,13.10
2022-10-31T21:28:59.060Z,13.10
2022-10-31T21:31:28.124Z,13.10
2022-10-31T21:33:55.065Z,13.00
2022-10-31T21:36:22.251Z,13.00
2022-10-31T21:38:53.242Z,13.00
2022-10-31T21:41:21.993Z,13.00
2022-10-31T21:43:50.562Z,13.00
2022-10-31T21:46:20.014Z,12.90
2022-10-31T21:48:47.615Z,12.90
2022-10-31T21:51:17.056Z,12.80
2022-10-31T21:54:02.601Z,12.90
2022-10-31T21:56:29.809Z,12.90
2022-10-31T21:58:56.957Z,12.80
2022-10-31T22:01:26.607Z,12.80
2022-10-31T22:03:53.552Z,12.70
2022-10-31T22:06:20.689Z,12.70
2022-10-31T22:08:47.659Z,12.70
2022-10-31T22:11:16.532Z,12.70
2022-10-31T22:13:45.341Z,12.70
2022-10-31T22:16:14.400Z,12.70
2022-10-31T22:18:42.398Z,12.60
2022-10-31T22:21:14.625Z,12.70
2022-10-31T22:23:41.649Z,12.70
2022-10-31T22:26:14.187Z,12.70
2022-10-31T22:28:42.594Z,12.70
2022-10-31T22:33:38.943Z,12.60
2022-10-31T22:36:12.175Z,12.60
2022-10-31T22:38:40.066Z,12.60
2022-10-31T22:41:07.773Z,12.60
2022-10-31T22:43:34.643Z,12.50
2022-10-31T22:46:04.810Z,12.50
2022-10-31T22:48:35.749Z,12.40
2022-10-31T22:51:06.131Z,12.40
2022-10-31T22:53:34.825Z,12.40
2022-10-31T22:56:02.070Z,12.40
2022-10-31T22:58:30.151Z,12.40
2022-10-31T23:00:56.847Z,12.50
2022-10-31T23:03:23.560Z,12.60
2022-10-31T23:06:02.112Z,12.50
2022-10-31T23:08:29.776Z,12.60
2022-10-31T23:10:56.561Z,12.50
2022-10-31T23:13:42.143Z,12.60
2022-10-31T23:16:10.179Z,12.60
2022-10-31T23:18:49.800Z,12.60
2022-10-31T23:21:37.155Z,12.70
2022-10-31T23:24:03.948Z,12.70
2022-10-31T23:26:49.280Z,12.70
2022-10-31T23:29:15.846Z,12.70
2022-10-31T23:31:42.423Z,12.70
2022-10-31T23:34:09.118Z,12.80
2022-10-31T23:36:35.712Z,12.70
2022-10-31T23:39:02.284Z,12.80
2022-10-31T23:41:28.880Z,12.70
2022-10-31T23:43:55.538Z,12.70
2022-10-31T23:46:22.091Z,12.80
2022-10-31T23:48:49.453Z,12.80
2022-10-31T23:51:16.384Z,12.80
2022-10-31T23:53:46.377Z,12.70
2022-10-31T23:56:13.809Z,12.60
2022-10-31T23:58:40.888Z,12.60
